Time;durP1;ratioP1;P1;durP2;ratioP2;P2;SDS_P1;SDS_P2;PMS_P1;PMS_P2;Temp;Humidity;BMP_temperature;BMP_pressure;BME280_temperature;BME280_humidity;BME280_pressure;Samples;Min_cycle;Max_cycle;Signal;HPM_P1;HPM_P2
2022/04/13 00:00:43;;;;;;;9.17;5.03;;;7.60;99.90;;;;;;5096757;28;20224;-76
2022/04/13 00:03:11;;;;;;;8.53;4.90;;;7.50;99.90;;;;;;5097094;28;20197;-76
2022/04/13 00:05:38;;;;;;;8.00;5.07;;;7.60;99.90;;;;;;5096667;28;20653;-76
2022/04/13 00:08:06;;;;;;;6.90;5.23;;;7.60;99.90;;;;;;5096270;28;20293;-77
2022/04/13 00:10:33;;;;;;;7.33;5.13;;;7.60;99.90;;;;;;5096145;28;20235;-76
2022/04/13 00:13:00;;;;;;;7.17;5.47;;;7.60;99.90;;;;;;5096135;28;20196;-76
2022/04/13 00:15:27;;;;;;;8.60;5.30;;;7.50;99.90;;;;;;5095992;28;20196;-76
2022/04/13 00:17:53;;;;;;;6.93;5.50;;;7.50;99.90;;;;;;5096122;28;20288;-76
2022/04/13 00:20:22;;;;;;;6.63;4.70;;;7.60;99.90;;;;;;5095979;28;20220;-76
2022/04/13 00:22:49;;;;;;;6.60;5.17;;;7.60;99.90;;;;;;5095953;28;20204;-76
2022/04/13 00:25:16;;;;;;;9.20;5.40;;;7.70;99.90;;;;;;5095719;28;20224;-76
2022/04/13 00:27:43;;;;;;;6.77;5.23;;;7.60;99.90;;;;;;5095718;28;20198;-76
2022/04/13 00:30:11;;;;;;;9.37;5.03;;;7.60;99.90;;;;;;5095903;28;20201;-76
2022/04/13 00:32:37;;;;;;;6.90;5.60;;;7.60;99.90;;;;;;5095834;28;20196;-76
2022/04/13 00:35:05;;;;;;;7.97;5.23;;;7.70;99.90;;;;;;5095550;28;20251;-76
2022/04/13 00:37:33;;;;;;;5.90;4.90;;;7.70;99.90;;;;;;5095653;28;20200;-76
2022/04/13 00:40:00;;;;;;;7.77;5.70;;;7.70;99.90;;;;;;5095573;28;20605;-76
2022/04/13 00:42:28;;;;;;;6.93;5.33;;;7.70;99.90;;;;;;5095400;28;20196;-76
2022/04/13 00:44:55;;;;;;;8.47;5.43;;;7.70;99.90;;;;;;5095656;28;20192;-75
2022/04/13 00:47:22;;;;;;;8.57;5.47;;;7.70;99.90;;;;;;5095599;28;20207;-76
2022/04/13 00:49:49;;;;;;;8.37;5.37;;;7.70;99.90;;;;;;5095486;28;20196;-76
2022/04/13 00:52:18;;;;;;;7.57;5.10;;;7.60;99.90;;;;;;5095404;28;20255;-76
2022/04/13 00:54:49;;;;;;;6.73;5.20;;;7.60;99.90;;;;;;5095247;28;20196;-76
2022/04/13 00:57:18;;;;;;;6.40;5.13;;;7.50;99.90;;;;;;5095536;28;20193;-76
2022/04/13 00:59:48;;;;;;;6.13;4.57;;;7.50;99.90;;;;;;5095267;28;20212;-76
2022/04/13 01:02:17;;;;;;;6.00;4.83;;;7.50;99.90;;;;;;5095232;28;20251;-76
2022/04/13 01:04:46;;;;;;;8.23;4.73;;;7.40;99.90;;;;;;5095149;28;20599;-76
2022/04/13 01:07:12;;;;;;;5.63;5.03;;;7.40;99.90;;;;;;5094964;28;20726;-76
2022/04/13 01:09:40;;;;;;;6.47;5.10;;;7.40;99.90;;;;;;5094901;28;20211;-76
2022/04/13 01:12:09;;;;;;;7.20;5.00;;;7.30;99.90;;;;;;5095073;28;20257;-76
2022/04/13 01:14:36;;;;;;;8.10;4.90;;;7.30;99.90;;;;;;5095182;28;20201;-76
2022/04/13 01:17:03;;;;;;;9.83;4.90;;;7.20;99.90;;;;;;5094811;28;20678;-76
2022/04/13 01:19:32;;;;;;;7.00;5.23;;;7.20;99.90;;;;;;5094744;28;20728;-76
2022/04/13 01:22:03;;;;;;;7.43;5.63;;;7.10;99.90;;;;;;5094690;28;20200;-76
2022/04/13 01:24:32;;;;;;;7.30;5.20;;;7.10;99.90;;;;;;5094438;28;20743;-75
2022/04/13 01:26:59;;;;;;;9.37;5.70;;;7.10;99.90;;;;;;5094727;28;20193;-76
2022/04/13 01:29:26;;;;;;;7.77;5.67;;;7.00;99.90;;;;;;5094588;28;20249;-76
2022/04/13 01:31:54;;;;;;;6.50;5.43;;;7.00;99.90;;;;;;5094737;28;20201;-76
2022/04/13 01:34:21;;;;;;;7.90;5.33;;;7.00;99.90;;;;;;5094492;28;20236;-76
2022/04/13 01:36:48;;;;;;;6.77;5.30;;;6.90;99.90;;;;;;5094592;28;20204;-76
2022/04/13 01:39:15;;;;;;;6.40;4.83;;;6.80;99.90;;;;;;5094606;28;20200;-76
2022/04/13 01:41:43;;;;;;;8.10;5.13;;;6.80;99.90;;;;;;5094513;28;20224;-76
2022/04/13 01:44:09;;;;;;;6.87;5.47;;;6.70;99.90;;;;;;5094274;28;20568;-75
2022/04/13 01:46:36;;;;;;;9.90;5.53;;;6.70;99.90;;;;;;5093999;28;20196;-76
2022/04/13 01:49:03;;;;;;;5.83;4.87;;;6.60;99.90;;;;;;5093870;28;20204;-76
2022/04/13 01:51:30;;;;;;;6.37;4.90;;;6.60;99.90;;;;;;5094154;28;20193;-75
2022/04/13 01:53:56;;;;;;;7.00;4.83;;;6.60;99.90;;;;;;5094250;28;20200;-76
2022/04/13 01:56:23;;;;;;;7.43;4.90;;;6.60;99.90;;;;;;5094168;28;20250;-76
2022/04/13 01:58:51;;;;;;;5.93;4.90;;;6.70;99.90;;;;;;5094035;28;20196;-76
2022/04/13 02:01:19;;;;;;;5.73;4.73;;;6.60;99.90;;;;;;5093873;28;20220;-76
2022/04/13 02:03:45;;;;;;;7.73;5.07;;;6.60;99.90;;;;;;5093952;28;20200;-75
2022/04/13 02:06:14;;;;;;;7.23;5.20;;;6.60;99.90;;;;;;5094183;28;20671;-75
2022/04/13 02:08:41;;;;;;;6.63;4.67;;;6.50;99.90;;;;;;5094080;28;20195;-76
2022/04/13 02:11:08;;;;;;;8.20;5.33;;;6.50;99.90;;;;;;5094041;28;20200;-76
2022/04/13 02:13:34;;;;;;;6.13;4.83;;;6.60;99.90;;;;;;5093797;28;20700;-76
2022/04/13 02:16:02;;;;;;;6.60;5.47;;;6.60;99.90;;;;;;5093668;28;20225;-76
2022/04/13 02:18:29;;;;;;;6.27;5.10;;;6.60;99.90;;;;;;5093937;28;20197;-76
2022/04/13 02:20:55;;;;;;;7.80;4.97;;;6.60;99.90;;;;;;5093637;28;20250;-76
2022/04/13 02:23:22;;;;;;;9.07;4.77;;;6.60;99.90;;;;;;5093864;28;20200;-76
2022/04/13 02:25:49;;;;;;;6.77;5.00;;;6.50;99.90;;;;;;5093470;28;20243;-76
2022/04/13 02:28:15;;;;;;;5.70;4.67;;;6.40;99.90;;;;;;5093449;28;20200;-76
2022/04/13 02:30:42;;;;;;;8.43;4.97;;;6.40;99.90;;;;;;5093357;28;20200;-76
2022/04/13 02:33:10;;;;;;;7.80;4.90;;;6.40;99.90;;;;;;5093694;28;20249;-76
2022/04/13 02:35:36;;;;;;;7.00;5.17;;;6.40;99.90;;;;;;5093616;28;20199;-76
2022/04/13 02:38:03;;;;;;;6.30;5.10;;;6.40;99.90;;;;;;5093423;28;20196;-76
2022/04/13 02:40:30;;;;;;;8.93;4.87;;;6.30;99.90;;;;;;5093265;28;20231;-76
2022/04/13 02:42:57;;;;;;;6.77;5.47;;;6.20;99.90;;;;;;5093251;28;20700;-76
2022/04/13 02:45:23;;;;;;;6.70;4.80;;;6.20;99.90;;;;;;5093116;28;20196;-76
2022/04/13 02:47:50;;;;;;;9.03;4.90;;;6.10;99.90;;;;;;5094065;28;20204;-75
2022/04/13 02:50:18;;;;;;;5.63;4.93;;;6.10;99.90;;;;;;5095114;28;20197;-76
2022/04/13 02:52:45;;;;;;;5.17;4.30;;;6.10;99.90;;;;;;5093979;28;20227;-76
2022/04/13 02:55:12;;;;;;;8.43;5.27;;;6.00;99.90;;;;;;5093093;28;20679;-74
2022/04/13 02:57:39;;;;;;;7.27;4.70;;;6.00;99.90;;;;;;5093261;28;20201;-74
2022/04/13 03:00:08;;;;;;;6.83;4.97;;;5.80;99.90;;;;;;5093044;28;20292;-75
2022/04/13 03:02:36;;;;;;;6.23;4.63;;;5.90;99.90;;;;;;5094050;28;20196;-75
2022/04/13 03:05:03;;;;;;;8.50;5.53;;;5.90;99.90;;;;;;5095195;28;20665;-77
2022/04/13 03:07:32;;;;;;;6.23;5.10;;;5.80;99.90;;;;;;5093627;28;20200;-75
2022/04/13 03:09:59;;;;;;;8.00;5.20;;;5.80;99.90;;;;;;5093005;28;20791;-75
2022/04/13 03:12:26;;;;;;;11.63;5.40;;;5.80;99.90;;;;;;5093066;28;20196;-75
2022/04/13 03:14:52;;;;;;;6.97;5.67;;;5.70;99.90;;;;;;5093549;28;20218;-75
2022/04/13 03:17:19;;;;;;;8.37;6.00;;;5.70;99.90;;;;;;5093268;28;20201;-75
2022/04/13 03:19:46;;;;;;;6.83;5.63;;;5.60;99.90;;;;;;5093557;28;20203;-75
2022/04/13 03:22:12;;;;;;;11.63;5.30;;;5.70;99.90;;;;;;5093674;28;20760;-75
2022/04/13 03:24:40;;;;;;;8.87;5.13;;;5.60;99.90;;;;;;5093211;28;20228;-75
2022/04/13 03:27:07;;;;;;;6.03;5.37;;;5.60;99.90;;;;;;5093196;28;20206;-75
2022/04/13 03:29:34;;;;;;;7.97;5.73;;;5.60;99.90;;;;;;5093705;28;20200;-75
2022/04/13 03:32:00;;;;;;;8.87;5.53;;;5.60;99.90;;;;;;5093499;28;20199;-75
2022/04/13 03:34:28;;;;;;;9.43;5.60;;;5.50;99.90;;;;;;5093650;28;20651;-76
2022/04/13 03:36:54;;;;;;;8.37;5.27;;;5.50;99.90;;;;;;5094454;28;20196;-75
2022/04/13 03:39:21;;;;;;;6.53;5.20;;;5.50;99.90;;;;;;5094318;28;20203;-74
2022/04/13 03:41:50;;;;;;;9.50;5.43;;;5.40;99.90;;;;;;5095634;28;20250;-75
2022/04/13 03:44:17;;;;;;;14.30;6.53;;;5.50;99.90;;;;;;5097274;28;20246;-76
2022/04/13 03:46:44;;;;;;;7.87;6.20;;;5.50;99.90;;;;;;5101477;28;20203;-75
2022/04/13 03:49:12;;;;;;;10.23;5.93;;;5.50;99.90;;;;;;5103405;28;20266;-76
2022/04/13 03:51:38;;;;;;;11.63;6.23;;;5.50;99.90;;;;;;5103398;28;20199;-76
2022/04/13 03:54:05;;;;;;;10.20;6.90;;;5.40;99.90;;;;;;5099646;28;20253;-75
2022/04/13 03:56:33;;;;;;;13.23;6.47;;;5.40;99.90;;;;;;5098776;28;20207;-75
2022/04/13 03:59:01;;;;;;;8.80;6.07;;;5.30;99.90;;;;;;5097231;28;20677;-75
2022/04/13 04:01:28;;;;;;;6.60;5.90;;;5.20;99.90;;;;;;5096919;28;20227;-74
2022/04/13 04:03:55;;;;;;;8.63;6.07;;;5.20;99.90;;;;;;5097833;28;20525;-75
2022/04/13 04:06:23;;;;;;;9.47;6.10;;;5.20;99.90;;;;;;5097133;28;20229;-75
2022/04/13 04:08:50;;;;;;;9.00;5.97;;;5.20;99.90;;;;;;5097679;28;20246;-75
2022/04/13 04:11:17;;;;;;;10.00;5.60;;;5.10;99.90;;;;;;5099898;28;20707;-75
2022/04/13 04:13:44;;;;;;;6.40;5.10;;;5.20;99.90;;;;;;5100920;28;20654;-75
2022/04/13 04:16:12;;;;;;;9.63;6.00;;;5.20;99.90;;;;;;5101000;28;20207;-76
2022/04/13 04:18:39;;;;;;;7.50;5.10;;;5.20;99.90;;;;;;5100406;28;20224;-75
2022/04/13 04:21:05;;;;;;;10.03;5.97;;;5.20;99.90;;;;;;5100091;28;20297;-75
2022/04/13 04:23:32;;;;;;;11.43;6.00;;;5.20;99.90;;;;;;5100787;28;20539;-76
2022/04/13 04:25:59;;;;;;;13.13;6.73;;;5.20;99.90;;;;;;5102096;28;20228;-75
2022/04/13 04:28:25;;;;;;;9.60;5.57;;;5.20;99.90;;;;;;5102124;28;20254;-76
2022/04/13 04:30:52;;;;;;;8.27;6.20;;;5.20;99.90;;;;;;5101477;28;20240;-75
2022/04/13 04:33:20;;;;;;;10.40;5.93;;;5.10;99.90;;;;;;5102482;28;20226;-76
2022/04/13 04:35:47;;;;;;;11.60;5.43;;;5.10;99.90;;;;;;5101860;28;20203;-76
2022/04/13 04:38:14;;;;;;;10.57;5.73;;;5.00;99.90;;;;;;5100652;28;20658;-76
2022/04/13 04:40:41;;;;;;;6.57;5.67;;;5.00;99.90;;;;;;5102444;28;20234;-76
2022/04/13 04:43:08;;;;;;;10.63;5.37;;;5.10;99.90;;;;;;5101846;28;20673;-76
2022/04/13 04:45:34;;;;;;;10.00;6.17;;;5.00;99.90;;;;;;5100640;28;20257;-76
2022/04/13 04:48:04;;;;;;;9.13;5.90;;;5.00;99.90;;;;;;5100534;28;20451;-76
2022/04/13 04:50:34;;;;;;;10.07;6.20;;;5.00;99.90;;;;;;5100104;28;20214;-76
2022/04/13 04:53:01;;;;;;;11.77;6.93;;;5.00;99.90;;;;;;5100772;28;20196;-76
2022/04/13 04:55:27;;;;;;;9.43;6.17;;;5.10;99.90;;;;;;5100256;28;20199;-76
2022/04/13 04:57:54;;;;;;;10.27;5.83;;;5.10;99.90;;;;;;5102900;28;20631;-76
2022/04/13 05:00:22;;;;;;;11.80;6.20;;;5.10;99.90;;;;;;5103074;28;20203;-76
2022/04/13 05:02:49;;;;;;;10.70;5.47;;;5.10;99.90;;;;;;5103708;28;20191;-75
2022/04/13 05:05:16;;;;;;;7.17;5.37;;;5.20;99.90;;;;;;5102664;28;20203;-74
2022/04/13 05:07:45;;;;;;;7.70;5.70;;;5.20;99.90;;;;;;5100988;28;20202;-75
2022/04/13 05:10:12;;;;;;;9.93;5.67;;;5.20;99.90;;;;;;5101200;28;20199;-75
2022/04/13 05:12:44;;;;;;;10.30;5.70;;;5.30;99.90;;;;;;5100758;28;20598;-75
2022/04/13 05:15:12;;;;;;;9.53;5.90;;;5.40;99.90;;;;;;5100190;28;20246;-75
2022/04/13 05:17:39;;;;;;;10.50;5.77;;;5.40;99.90;;;;;;5098848;28;20206;-75
2022/04/13 05:20:07;;;;;;;10.60;6.03;;;5.50;99.90;;;;;;5098049;28;20252;-75
2022/04/13 05:22:34;;;;;;;9.47;5.87;;;5.60;99.90;;;;;;5095612;28;20231;-76
2022/04/13 05:25:07;;;;;;;9.93;6.00;;;5.60;99.90;;;;;;5095326;28;20228;-75
2022/04/13 05:27:34;;;;;;;9.60;5.90;;;5.70;99.90;;;;;;5095444;28;20195;-76
2022/04/13 05:30:01;;;;;;;13.60;6.17;;;5.80;99.90;;;;;;5095039;28;20245;-75
2022/04/13 05:32:28;;;;;;;9.93;6.17;;;5.90;99.90;;;;;;5095059;28;20204;-76
2022/04/13 05:35:01;;;;;;;10.53;6.07;;;6.00;99.90;;;;;;5094781;28;20204;-75
2022/04/13 05:37:28;;;;;;;12.37;7.17;;;6.10;99.90;;;;;;5094649;28;20207;-75
2022/04/13 05:39:55;;;;;;;12.13;6.80;;;6.20;99.90;;;;;;5094506;28;20246;-76
2022/04/13 05:42:24;;;;;;;12.00;7.13;;;6.30;99.90;;;;;;5094426;28;20232;-75
2022/04/13 05:44:52;;;;;;;15.97;7.80;;;6.40;99.90;;;;;;5094417;28;20725;-76
2022/04/13 05:47:19;;;;;;;10.63;6.77;;;6.50;99.90;;;;;;5094626;28;20250;-76
2022/04/13 05:49:46;;;;;;;10.67;6.67;;;6.60;99.90;;;;;;5094553;28;20253;-75
2022/04/13 05:52:12;;;;;;;9.67;6.33;;;6.70;99.90;;;;;;5094275;28;20257;-75
2022/04/13 05:54:39;;;;;;;13.60;5.90;;;6.70;99.90;;;;;;5094050;28;20218;-76
2022/04/13 05:57:06;;;;;;;12.33;6.03;;;6.70;99.90;;;;;;5093989;28;20196;-75
2022/04/13 05:59:34;;;;;;;10.47;5.70;;;6.70;99.90;;;;;;5094162;28;20227;-75
2022/04/13 06:02:00;;;;;;;12.03;6.50;;;6.70;99.90;;;;;;5094160;28;20224;-76
2022/04/13 06:04:27;;;;;;;10.57;6.33;;;6.70;99.90;;;;;;5094034;28;20245;-77
2022/04/13 06:06:55;;;;;;;10.73;6.57;;;6.90;99.90;;;;;;5093826;28;20216;-78
2022/04/13 06:09:22;;;;;;;11.67;5.83;;;7.00;99.90;;;;;;5093760;28;20196;-77
2022/04/13 06:11:49;;;;;;;10.73;5.90;;;7.20;99.90;;;;;;5093750;28;20213;-78
2022/04/13 06:14:15;;;;;;;10.97;5.97;;;7.30;99.90;;;;;;5093799;28;20196;-77
2022/04/13 06:16:43;;;;;;;15.00;6.30;;;7.50;99.90;;;;;;5093667;28;20248;-76
2022/04/13 06:19:10;;;;;;;10.67;6.40;;;7.60;99.90;;;;;;5093685;28;20258;-79
2022/04/13 06:21:37;;;;;;;9.57;6.70;;;7.70;99.90;;;;;;5094612;28;20273;-74
2022/04/13 06:24:04;;;;;;;10.63;6.73;;;7.90;99.90;;;;;;5092017;28;20276;-74
2022/04/13 06:26:31;;;;;;;12.63;6.50;;;7.90;99.90;;;;;;5092572;28;20200;-74
2022/04/13 06:28:57;;;;;;;11.87;6.47;;;8.00;99.90;;;;;;5092406;28;20214;-74
2022/04/13 06:31:24;;;;;;;15.37;6.87;;;8.20;99.90;;;;;;5092338;28;20208;-74
2022/04/13 06:33:52;;;;;;;18.33;6.90;;;8.30;99.90;;;;;;5092000;28;20250;-74
2022/04/13 06:36:19;;;;;;;11.70;7.20;;;8.40;99.90;;;;;;5092015;28;20261;-74
2022/04/13 06:38:46;;;;;;;12.20;7.13;;;8.50;99.90;;;;;;5093186;28;20265;-76
2022/04/13 06:41:13;;;;;;;12.50;6.50;;;8.60;99.90;;;;;;5093545;28;20197;-76
2022/04/13 06:43:40;;;;;;;9.57;6.13;;;8.80;99.90;;;;;;5093402;28;20191;-74
2022/04/13 06:46:07;;;;;;;10.57;6.37;;;8.90;99.90;;;;;;5093078;28;20563;-74
2022/04/13 06:48:34;;;;;;;13.60;6.90;;;9.10;99.90;;;;;;5093130;28;20616;-75
2022/04/13 06:51:03;;;;;;;13.70;7.43;;;9.30;99.90;;;;;;5093055;28;20549;-75
2022/04/13 06:53:30;;;;;;;11.30;6.70;;;9.40;99.90;;;;;;5092958;28;20674;-74
2022/04/13 06:55:56;;;;;;;13.87;7.03;;;9.60;99.90;;;;;;5093136;28;20555;-75
2022/04/13 06:58:23;;;;;;;11.03;6.60;;;9.80;99.90;;;;;;5093125;28;20196;-75
2022/04/13 07:00:49;;;;;;;14.43;7.17;;;9.90;99.90;;;;;;5093016;28;20196;-74
2022/04/13 07:03:16;;;;;;;7.70;6.17;;;10.20;99.90;;;;;;5092795;28;20228;-75
2022/04/13 07:05:43;;;;;;;8.47;6.97;;;10.40;99.90;;;;;;5092776;28;20196;-74
2022/04/13 07:08:11;;;;;;;12.97;6.77;;;10.60;99.90;;;;;;5093155;28;20197;-75
2022/04/13 07:10:38;;;;;;;9.30;6.70;;;10.90;99.90;;;;;;5093053;28;20254;-74
2022/04/13 07:13:07;;;;;;;12.07;6.43;;;11.10;99.90;;;;;;5092806;28;20244;-75
2022/04/13 07:15:33;;;;;;;10.80;6.57;;;11.20;99.90;;;;;;5092673;28;20644;-75
2022/04/13 07:18:00;;;;;;;8.47;6.47;;;11.40;99.90;;;;;;5092690;28;20713;-74
2022/04/13 07:20:27;;;;;;;13.30;6.73;;;11.70;99.90;;;;;;5092650;28;20192;-74
2022/04/13 07:22:54;;;;;;;8.60;6.33;;;11.90;99.90;;;;;;5092868;28;20228;-74
2022/04/13 07:25:23;;;;;;;8.90;6.23;;;12.00;99.90;;;;;;5092519;28;20254;-74
2022/04/13 07:27:50;;;;;;;7.10;5.87;;;12.30;99.90;;;;;;5092589;28;20652;-74
2022/04/13 07:30:17;;;;;;;11.57;6.67;;;12.40;99.90;;;;;;5092646;28;20192;-75
2022/04/13 07:32:45;;;;;;;8.37;6.20;;;12.70;99.90;;;;;;5092721;28;20241;-74
2022/04/13 07:35:12;;;;;;;8.77;6.40;;;12.80;99.90;;;;;;5092730;28;20192;-75
2022/04/13 07:37:40;;;;;;;7.97;6.30;;;12.90;99.90;;;;;;5092776;28;20250;-75
2022/04/13 07:40:08;;;;;;;9.63;7.03;;;13.10;99.90;;;;;;5092775;28;20203;-75
2022/04/13 07:42:36;;;;;;;11.73;6.43;;;13.30;99.90;;;;;;5092364;28;20228;-75
2022/04/13 07:45:04;;;;;;;8.60;5.83;;;13.40;99.90;;;;;;5092914;28;20192;-75
2022/04/13 07:47:31;;;;;;;7.27;6.13;;;13.60;99.90;;;;;;5096419;28;20343;-77
2022/04/13 07:49:58;;;;;;;9.93;6.27;;;13.90;99.90;;;;;;5096694;28;20200;-74
2022/04/13 07:52:26;;;;;;;7.93;6.17;;;14.00;99.90;;;;;;5096471;28;20261;-74
2022/04/13 07:54:52;;;;;;;14.03;7.30;;;14.10;99.90;;;;;;5096387;28;20242;-75
2022/04/13 07:57:19;;;;;;;11.17;6.63;;;14.30;99.90;;;;;;5096319;28;20192;-75
2022/04/13 07:59:47;;;;;;;8.70;6.20;;;14.40;99.10;;;;;;5096373;28;20287;-77
2022/04/13 08:02:15;;;;;;;10.63;6.47;;;14.60;98.50;;;;;;5096166;28;20228;-76
2022/04/13 08:04:41;;;;;;;11.37;6.80;;;14.80;94.70;;;;;;5096393;28;20199;-75
2022/04/13 08:07:08;;;;;;;9.60;7.23;;;15.00;95.10;;;;;;5096337;28;20316;-75
2022/04/13 08:09:37;;;;;;;8.33;6.43;;;15.10;94.20;;;;;;5096025;28;20253;-75
2022/04/13 08:12:04;;;;;;;9.20;6.67;;;15.30;93.10;;;;;;5095912;28;20343;-75
2022/04/13 08:14:30;;;;;;;8.80;7.10;;;15.50;92.10;;;;;;5095789;28;20200;-75
2022/04/13 08:16:59;;;;;;;7.47;6.10;;;15.70;91.30;;;;;;5096113;28;20273;-74
2022/04/13 08:19:26;;;;;;;9.40;6.68;;;15.80;90.60;;;;;;5095858;28;20215;-75
2022/04/13 08:21:52;;;;;;;8.10;5.90;;;16.00;90.10;;;;;;5095734;28;20583;-76
2022/04/13 08:24:19;;;;;;;8.23;6.13;;;16.10;86.30;;;;;;5095619;28;20224;-75
2022/04/13 08:26:46;;;;;;;8.75;6.28;;;16.20;89.30;;;;;;5095644;28;20734;-75
2022/04/13 08:29:12;;;;;;;8.20;6.13;;;16.30;84.40;;;;;;5095561;28;20242;-75
2022/04/13 08:31:39;;;;;;;7.57;5.82;;;16.60;84.40;;;;;;5095718;28;20196;-75
2022/04/13 08:34:07;;;;;;;7.20;5.80;;;16.80;79.20;;;;;;5095676;28;20205;-74
2022/04/13 08:36:33;;;;;;;8.10;6.25;;;16.80;79.40;;;;;;5095593;28;20196;-75
2022/04/13 08:39:00;;;;;;;7.65;6.25;;;17.10;78.10;;;;;;5095417;28;20222;-74
2022/04/13 08:41:37;;;;;;;7.55;6.15;;;17.30;74.50;;;;;;5095368;28;20196;-76
2022/04/13 08:44:08;;;;;;;7.28;5.82;;;17.40;75.40;;;;;;5095377;28;20215;-76
2022/04/13 08:46:40;;;;;;;8.05;6.00;;;17.60;74.20;;;;;;5095462;28;20381;-77
2022/04/13 08:49:10;;;;;;;8.20;6.18;;;17.80;72.40;;;;;;5095381;28;20253;-76
2022/04/13 08:51:39;;;;;;;8.70;6.45;;;18.00;68.30;;;;;;5095337;28;20266;-75
2022/04/13 08:54:11;;;;;;;8.95;6.45;;;18.20;67.60;;;;;;5095215;28;20196;-75
2022/04/13 08:56:39;;;;;;;8.40;5.65;;;18.50;66.70;;;;;;5095397;28;20533;-75
2022/04/13 08:59:11;;;;;;;7.25;5.68;;;18.50;62.10;;;;;;5095379;28;20200;-74
2022/04/13 09:01:44;;;;;;;9.30;6.57;;;18.70;59.60;;;;;;5095106;28;20648;-75
2022/04/13 09:04:13;;;;;;;7.32;6.32;;;18.80;58.40;;;;;;5095179;28;20222;-75
2022/04/13 09:06:41;;;;;;;6.75;5.38;;;19.00;58.20;;;;;;5094928;28;20196;-77
2022/04/13 09:09:15;;;;;;;9.52;5.90;;;19.30;57.80;;;;;;5095162;28;20196;-76
2022/04/13 09:11:44;;;;;;;8.40;6.20;;;19.50;56.60;;;;;;5095193;28;20199;-77
2022/04/13 09:14:12;;;;;;;6.55;5.90;;;19.60;55.10;;;;;;5095052;28;20200;-76
2022/04/13 09:16:39;;;;;;;6.78;5.53;;;19.90;53.60;;;;;;5095001;28;20242;-76
2022/04/13 09:19:06;;;;;;;7.80;5.75;;;20.30;54.50;;;;;;5094696;28;20200;-76
2022/04/13 09:21:34;;;;;;;9.30;5.68;;;20.50;52.70;;;;;;5095059;28;20265;-76
2022/04/13 09:24:01;;;;;;;5.88;5.20;;;20.70;51.00;;;;;;5094687;28;20236;-76
2022/04/13 09:26:29;;;;;;;8.38;5.78;;;20.80;50.30;;;;;;5094679;28;20192;-76
2022/04/13 09:28:55;;;;;;;8.52;5.43;;;20.90;49.40;;;;;;5094544;28;20203;-76
2022/04/13 09:31:22;;;;;;;6.70;5.72;;;21.00;48.10;;;;;;5094664;28;20200;-76
2022/04/13 09:33:49;;;;;;;9.55;5.70;;;21.10;47.80;;;;;;5094491;28;20261;-75
2022/04/13 09:36:15;;;;;;;7.47;5.78;;;21.10;46.70;;;;;;5094725;28;20253;-76
2022/04/13 09:38:44;;;;;;;7.05;5.30;;;21.40;46.50;;;;;;5094786;28;20196;-74
2022/04/13 09:41:12;;;;;;;7.35;5.60;;;21.70;45.80;;;;;;5094810;28;20597;-74
2022/04/13 09:43:39;;;;;;;7.70;5.55;;;22.10;44.30;;;;;;5094247;28;20224;-75
2022/04/13 09:46:06;;;;;;;8.85;4.97;;;22.30;42.80;;;;;;5094270;28;20204;-76
2022/04/13 09:48:34;;;;;;;10.48;5.40;;;22.50;41.90;;;;;;5094486;28;20204;-76
2022/04/13 09:51:02;;;;;;;5.97;5.10;;;22.70;39.30;;;;;;5094402;28;20200;-75
2022/04/13 09:53:29;;;;;;;8.57;4.97;;;23.20;39.00;;;;;;5094247;28;20241;-76
2022/04/13 09:55:59;;;;;;;6.65;4.97;;;23.50;35.20;;;;;;5094155;28;20246;-75
2022/04/13 09:58:29;;;;;;;7.00;4.68;;;23.50;34.50;;;;;;5094204;28;20208;-75
2022/04/13 10:01:00;;;;;;;4.95;4.45;;;23.90;33.00;;;;;;5093794;28;20204;-75
2022/04/13 10:03:27;;;;;;;8.52;4.55;;;23.70;32.80;;;;;;5093738;28;20574;-75
2022/04/13 10:05:55;;;;;;;5.88;4.63;;;23.90;31.40;;;;;;5093939;28;20537;-76
2022/04/13 10:08:23;;;;;;;4.82;4.40;;;23.90;31.40;;;;;;5093346;28;20268;-75
2022/04/13 10:10:51;;;;;;;5.80;4.32;;;23.90;31.70;;;;;;5093867;28;20254;-76
2022/04/13 10:13:33;;;;;;;4.45;3.90;;;24.10;29.70;;;;;;5093678;28;20696;-75
2022/04/13 10:16:01;;;;;;;4.97;4.00;;;24.20;29.50;;;;;;5093761;28;20612;-75
2022/04/13 10:18:28;;;;;;;5.28;4.10;;;24.60;29.60;;;;;;5093779;28;20196;-77
2022/04/13 10:20:55;;;;;;;4.72;4.13;;;24.60;29.10;;;;;;5093653;28;20223;-77
2022/04/13 10:23:22;;;;;;;8.63;4.22;;;24.50;29.00;;;;;;5093509;28;20220;-77
2022/04/13 10:25:48;;;;;;;5.25;4.45;;;24.50;28.80;;;;;;5093288;28;20691;-77
2022/04/13 10:28:22;;;;;;;4.80;4.25;;;24.70;28.80;;;;;;5093454;28;20648;-77
2022/04/13 10:30:50;;;;;;;5.93;4.22;;;24.70;28.70;;;;;;5093730;28;20569;-76
2022/04/13 10:33:17;;;;;;;5.43;4.47;;;25.10;28.20;;;;;;5093457;28;20249;-76
2022/04/13 10:35:46;;;;;;;7.57;4.05;;;25.40;27.80;;;;;;5093192;28;20206;-75
2022/04/13 10:38:13;;;;;;;5.90;4.70;;;25.80;28.10;;;;;;5093285;28;20201;-76
2022/04/13 10:40:41;;;;;;;7.05;3.83;;;25.90;27.50;;;;;;5093122;28;20196;-77
2022/04/13 10:43:10;;;;;;;8.35;3.85;;;25.80;26.40;;;;;;5093090;28;20220;-76
2022/04/13 10:45:40;;;;;;;5.95;3.85;;;26.00;27.00;;;;;;5089207;28;20203;-76
2022/04/13 10:48:09;;;;;;;6.72;3.65;;;26.70;25.50;;;;;;5084970;28;20250;-75
2022/04/13 10:50:48;;;;;;;4.90;3.25;;;27.00;24.10;;;;;;5088596;28;20196;-76
2022/04/13 10:53:24;;;;;;;6.82;3.40;;;27.50;24.20;;;;;;5092705;28;20204;-75
2022/04/13 10:56:03;;;;;;;5.00;3.50;;;27.30;23.40;;;;;;5092933;28;20196;-76
2022/04/13 10:58:40;;;;;;;3.80;3.30;;;27.30;24.10;;;;;;5092746;28;20222;-76
2022/04/13 11:01:11;;;;;;;4.82;3.25;;;27.60;23.60;;;;;;5092723;28;20200;-76
2022/04/13 11:03:40;;;;;;;5.93;3.38;;;27.80;22.70;;;;;;5092699;28;20752;-76
2022/04/13 11:06:08;;;;;;;3.97;3.10;;;27.90;22.10;;;;;;5093097;28;20204;-76
2022/04/13 11:08:44;;;;;;;5.28;3.70;;;28.50;21.30;;;;;;5092568;28;20195;-76
2022/04/13 11:11:17;;;;;;;4.95;3.40;;;29.40;20.70;;;;;;5092742;28;20206;-76
2022/04/13 11:13:46;;;;;;;4.97;3.00;;;29.70;19.90;;;;;;5092694;28;20202;-78
2022/04/13 11:16:17;;;;;;;6.15;3.10;;;30.20;19.40;;;;;;5092814;28;20264;-77
2022/04/13 11:19:21;;;;;;;3.80;3.25;;;30.10;19.40;;;;;;5092465;28;20208;-75
2022/04/13 11:22:13;;;;;;;3.58;3.10;;;30.40;18.60;;;;;;5095464;28;20286;-76
2022/04/13 11:24:42;;;;;;;3.80;2.90;;;30.70;18.00;;;;;;5096461;28;20237;-76
2022/04/13 11:27:10;;;;;;;5.18;3.20;;;30.70;17.70;;;;;;5096730;28;20655;-76
2022/04/13 11:29:38;;;;;;;3.40;3.10;;;31.20;17.50;;;;;;5097011;28;20204;-76
2022/04/13 11:32:15;;;;;;;4.47;3.13;;;31.00;17.40;;;;;;5096819;28;20676;-76
2022/04/13 11:34:48;;;;;;;4.10;2.92;;;31.60;17.80;;;;;;5097030;28;20275;-76
2022/04/13 11:37:16;;;;;;;3.97;2.85;;;31.90;17.00;;;;;;5096945;28;20234;-76
2022/04/13 11:39:51;;;;;;;4.18;3.03;;;32.30;15.90;;;;;;5096875;28;20196;-76
2022/04/13 11:42:38;;;;;;;3.28;2.80;;;32.50;14.90;;;;;;5096772;28;20195;-76
2022/04/13 11:45:07;;;;;;;3.47;2.80;;;32.50;14.60;;;;;;5096701;28;20298;-76
2022/04/13 11:47:37;;;;;;;4.65;3.10;;;32.50;14.20;;;;;;5096880;28;20593;-74
2022/04/13 11:50:20;;;;;;;5.47;2.65;;;31.90;16.10;;;;;;5096592;28;20637;-75
2022/04/13 11:52:49;;;;;;;3.30;3.00;;;32.70;13.90;;;;;;5096414;28;20203;-75
2022/04/13 11:55:17;;;;;;;4.00;3.10;;;32.20;14.30;;;;;;5096234;28;20199;-75
2022/04/13 11:57:59;;;;;;;4.88;3.13;;;32.40;14.00;;;;;;5096465;28;20192;-76
2022/04/13 12:00:41;;;;;;;4.28;2.70;;;32.40;13.40;;;;;;5096605;28;20199;-77
2022/04/13 12:03:10;;;;;;;3.80;2.97;;;33.20;13.10;;;;;;5096457;28;20302;-76
2022/04/13 12:05:39;;;;;;;4.35;3.00;;;33.30;13.10;;;;;;5096340;28;20204;-76
2022/04/13 12:08:11;;;;;;;5.90;3.30;;;33.70;13.50;;;;;;5096958;28;20226;-76
2022/04/13 12:10:38;;;;;;;3.70;3.10;;;33.40;12.70;;;;;;5096818;28;20199;-76
2022/04/13 12:13:05;;;;;;;4.25;3.00;;;32.50;13.30;;;;;;5096670;28;20673;-76
2022/04/13 12:15:43;;;;;;;3.55;2.92;;;32.90;13.30;;;;;;5097029;28;20200;-75
2022/04/13 12:18:11;;;;;;;4.75;2.90;;;33.30;12.80;;;;;;5097964;28;20222;-75
2022/04/13 12:20:39;;;;;;;3.17;2.80;;;33.40;12.30;;;;;;5096885;28;20202;-74
2022/04/13 12:23:28;;;;;;;3.95;2.80;;;33.50;12.10;;;;;;5096503;28;20273;-77
2022/04/13 12:25:56;;;;;;;6.10;2.95;;;33.00;12.70;;;;;;5092995;28;20224;-74
2022/04/13 12:28:24;;;;;;;6.47;2.63;;;32.90;12.60;;;;;;5096746;28;20252;-75
2022/04/13 12:30:58;;;;;;;6.35;2.45;;;32.90;12.60;;;;;;5096955;28;20203;-75
2022/04/13 12:33:26;;;;;;;6.30;2.70;;;32.40;12.60;;;;;;5098571;28;20205;-76
2022/04/13 12:35:56;;;;;;;3.40;2.53;;;32.60;12.20;;;;;;5096729;28;20199;-77
2022/04/13 12:38:30;;;;;;;5.45;2.78;;;33.10;12.40;;;;;;5095667;28;20196;-76
2022/04/13 12:41:12;;;;;;;4.60;2.60;;;33.30;12.10;;;;;;5095718;28;20203;-76
2022/04/13 12:43:41;;;;;;;7.63;2.70;;;33.50;11.70;;;;;;5095650;28;20215;-76
2022/04/13 12:46:15;;;;;;;4.47;2.45;;;32.80;10.40;;;;;;5095567;28;20195;-76
2022/04/13 12:48:44;;;;;;;5.32;2.75;;;32.80;10.50;;;;;;5095600;28;20195;-76
2022/04/13 12:51:13;;;;;;;4.15;2.47;;;32.70;10.60;;;;;;5095975;28;20567;-76
2022/04/13 12:53:58;;;;;;;4.13;2.63;;;33.10;10.60;;;;;;5095762;28;20253;-77
2022/04/13 12:56:26;;;;;;;3.67;2.45;;;33.20;11.00;;;;;;5095904;28;20199;-76